createdAt,value
2023-04-06T00:01:48.248Z,77.80
2023-04-06T00:03:50.286Z,77.44
2023-04-06T00:05:52.503Z,77.43
2023-04-06T00:07:55.334Z,77.33
2023-04-06T00:09:57.169Z,77.50
2023-04-06T00:11:59.008Z,77.49
2023-04-06T00:14:01.390Z,77.87
2023-04-06T00:16:03.609Z,77.70
2023-04-06T00:18:05.588Z,77.67
2023-04-06T00:20:08.269Z,78.83
2023-04-06T00:22:10.126Z,78.55
2023-04-06T00:24:11.931Z,78.15
2023-04-06T00:26:13.755Z,78.00
2023-04-06T00:28:15.747Z,78.02
2023-04-06T00:30:17.495Z,78.70
2023-04-06T00:32:19.286Z,78.54
2023-04-06T00:34:21.578Z,77.76
2023-04-06T00:36:23.479Z,78.42
2023-04-06T00:38:25.303Z,78.81
2023-04-06T00:40:29.471Z,78.42
2023-04-06T00:42:31.374Z,78.49
2023-04-06T00:44:33.144Z,78.26
2023-04-06T00:46:35.643Z,78.97
2023-04-06T00:48:37.494Z,79.29
2023-04-06T00:50:39.381Z,79.60
2023-04-06T00:52:41.272Z,79.00
2023-04-06T00:54:44.069Z,79.64
2023-04-06T00:56:46.222Z,79.65
2023-04-06T00:58:48.237Z,79.99
2023-04-06T01:00:50.218Z,80.41
2023-04-06T01:02:52.090Z,79.68
2023-04-06T01:04:55.345Z,79.10
2023-04-06T01:06:57.247Z,79.11
2023-04-06T01:08:59.153Z,79.39
2023-04-06T01:11:02.520Z,79.71
2023-04-06T01:13:04.426Z,79.32
2023-04-06T01:15:07.582Z,79.88
2023-04-06T01:17:09.416Z,80.31
2023-04-06T01:19:12.746Z,79.97
2023-04-06T01:21:16.985Z,79.86
2023-04-06T01:23:18.904Z,80.13
2023-04-06T01:25:20.886Z,80.96
2023-04-06T01:27:22.704Z,80.32
2023-04-06T01:29:24.471Z,80.00
2023-04-06T01:31:27.372Z,80.83
2023-04-06T01:33:29.151Z,81.02
2023-04-06T01:35:31.515Z,81.18
2023-04-06T01:37:33.710Z,80.90
2023-04-06T01:39:35.486Z,80.78
2023-04-06T01:41:37.562Z,81.81
2023-04-06T01:43:39.511Z,81.93
2023-04-06T01:45:41.550Z,81.37
2023-04-06T01:47:43.335Z,82.15
2023-04-06T01:49:45.099Z,80.97
2023-04-06T01:51:46.934Z,82.26
2023-04-06T01:53:50.376Z,81.94
2023-04-06T01:55:52.145Z,81.04
2023-04-06T01:57:53.933Z,82.06
2023-04-06T01:59:55.684Z,82.84
2023-04-06T02:01:57.457Z,82.19
2023-04-06T02:03:59.344Z,81.96
2023-04-06T02:06:04.966Z,82.42
2023-04-06T02:08:09.233Z,82.12
2023-04-06T02:10:14.200Z,82.32
2023-04-06T02:12:16.248Z,83.01
2023-04-06T02:14:18.153Z,82.46
2023-04-06T02:16:19.994Z,82.53
2023-04-06T02:18:22.293Z,82.92
2023-04-06T02:20:24.098Z,82.91
2023-04-06T02:22:25.842Z,83.33
2023-04-06T02:24:27.632Z,83.57
2023-04-06T02:26:31.867Z,83.66
2023-04-06T02:28:33.673Z,84.10
2023-04-06T02:30:35.697Z,84.34
2023-04-06T02:32:37.486Z,84.18
2023-04-06T02:34:39.249Z,83.90
2023-04-06T02:36:41.241Z,84.49
2023-04-06T02:38:43.177Z,84.04
2023-04-06T02:40:44.917Z,84.87
2023-04-06T02:42:46.683Z,84.03
2023-04-06T02:44:48.463Z,85.03
2023-04-06T02:46:50.288Z,85.17
2023-04-06T02:48:52.064Z,85.43
2023-04-06T02:50:53.997Z,85.95
2023-04-06T02:52:55.730Z,86.16
2023-04-06T02:54:57.528Z,86.04
2023-04-06T02:56:59.340Z,86.92
2023-04-06T02:59:01.145Z,86.27
2023-04-06T03:01:02.966Z,86.33
2023-04-06T03:03:04.823Z,86.10
2023-04-06T03:05:06.962Z,86.97
2023-04-06T03:07:11.938Z,86.36
2023-04-06T03:09:15.257Z,86.62
2023-04-06T03:11:17.069Z,86.57
2023-04-06T03:13:18.888Z,86.75
2023-04-06T03:15:20.908Z,86.52
2023-04-06T03:17:22.786Z,86.65
2023-04-06T03:19:24.565Z,85.95
2023-04-06T03:21:26.391Z,86.45
2023-04-06T03:23:28.128Z,85.98
2023-04-06T03:25:31.237Z,85.96
2023-04-06T03:27:33.774Z,86.21
2023-04-06T03:29:35.607Z,86.29
2023-04-06T03:31:37.439Z,85.82
2023-04-06T03:33:39.204Z,85.83
2023-04-06T03:35:41.155Z,85.28
2023-04-06T03:37:45.079Z,86.26
2023-04-06T03:39:46.900Z,85.26
2023-04-06T03:41:48.852Z,85.75
2023-04-06T03:43:51.014Z,85.51
2023-04-06T03:45:55.025Z,85.10
2023-04-06T03:47:57.288Z,84.79
2023-04-06T03:49:59.093Z,84.87
2023-04-06T03:52:02.253Z,84.74
2023-04-06T03:54:04.176Z,84.81
2023-04-06T03:56:06.522Z,84.37
2023-04-06T03:58:08.320Z,84.82
2023-04-06T04:00:11.102Z,84.22
2023-04-06T04:02:12.982Z,84.09
2023-04-06T04:04:14.817Z,84.45
2023-04-06T04:06:16.576Z,84.28
2023-04-06T04:08:18.354Z,83.46
2023-04-06T04:10:20.096Z,83.89
2023-04-06T04:12:21.956Z,83.76
2023-04-06T04:14:23.726Z,83.44
2023-04-06T04:16:25.917Z,83.81
2023-04-06T04:18:27.725Z,83.42
2023-04-06T04:20:29.666Z,83.30
2023-04-06T04:22:31.495Z,83.44
2023-04-06T04:24:33.815Z,83.33
2023-04-06T04:26:35.560Z,82.82
2023-04-06T04:28:37.330Z,82.73
2023-04-06T04:30:39.204Z,83.48
2023-04-06T04:32:41.477Z,83.68
2023-04-06T04:34:43.257Z,83.80
2023-04-06T04:36:45.189Z,83.78
2023-04-06T04:38:46.991Z,83.57
2023-04-06T04:40:48.720Z,82.85
2023-04-06T04:42:52.048Z,83.18
2023-04-06T04:44:53.815Z,82.65
2023-04-06T04:46:58.094Z,82.87
2023-04-06T04:48:59.875Z,82.94
2023-04-06T04:51:01.930Z,83.18
2023-04-06T04:53:06.534Z,83.39
2023-04-06T04:55:08.681Z,83.50
2023-04-06T04:57:10.457Z,82.92
2023-04-06T04:59:12.314Z,82.54
2023-04-06T05:01:14.207Z,83.47
2023-04-06T05:03:25.283Z,83.41
2023-04-06T05:05:27.241Z,83.47
2023-04-06T05:07:29.042Z,83.09
2023-04-06T05:09:32.306Z,83.75
2023-04-06T05:11:34.341Z,83.59
2023-04-06T05:13:36.507Z,83.44
2023-04-06T05:15:39.513Z,83.12
2023-04-06T05:17:41.596Z,83.66
2023-04-06T05:19:43.453Z,83.83
2023-04-06T05:21:45.495Z,84.92
2023-04-06T05:23:47.350Z,84.87
2023-04-06T05:25:49.238Z,84.24
2023-04-06T05:27:51.527Z,85.03
2023-04-06T05:29:54.953Z,85.06
2023-04-06T05:31:58.001Z,85.32
2023-04-06T05:34:00.666Z,85.36
2023-04-06T05:36:02.762Z,85.06
2023-04-06T05:38:04.760Z,85.98
2023-04-06T05:40:07.438Z,85.45
2023-04-06T05:42:09.363Z,84.95
2023-04-06T05:44:11.329Z,85.49
2023-04-06T05:46:13.206Z,85.25
2023-04-06T05:48:14.965Z,84.84
2023-04-06T05:50:17.068Z,85.06
2023-04-06T05:52:18.838Z,84.75
2023-04-06T05:54:21.188Z,84.09
2023-04-06T05:56:23.108Z,84.63
2023-04-06T05:58:25.193Z,84.98
2023-04-06T06:00:27.480Z,85.21
2023-04-06T06:02:32.129Z,85.30
2023-04-06T06:04:33.981Z,85.40
2023-04-06T06:06:36.136Z,85.62
2023-04-06T06:08:37.971Z,85.62
2023-04-06T06:10:41.348Z,85.59
2023-04-06T06:12:43.137Z,86.01
2023-04-06T06:14:45.030Z,86.38
2023-04-06T06:16:49.954Z,85.76
2023-04-06T06:18:51.887Z,86.06
2023-04-06T06:20:53.761Z,86.19
2023-04-06T06:22:55.676Z,86.31
2023-04-06T06:24:57.554Z,86.20
2023-04-06T06:26:59.760Z,86.73
2023-04-06T06:29:01.539Z,86.49
2023-04-06T06:31:03.540Z,86.77
2023-04-06T06:33:05.434Z,86.73
2023-04-06T06:35:07.817Z,86.29
2023-04-06T06:37:09.783Z,86.51
2023-04-06T06:39:11.834Z,86.03
2023-04-06T06:41:14.287Z,86.03
2023-04-06T06:43:16.204Z,84.93
2023-04-06T06:45:18.189Z,85.33
2023-04-06T06:47:20.135Z,85.06
2023-04-06T06:49:22.009Z,85.29
2023-04-06T06:51:23.857Z,84.73
2023-04-06T06:53:25.805Z,85.13
2023-04-06T06:55:27.886Z,84.48
2023-04-06T06:57:29.745Z,84.63
2023-04-06T06:59:31.606Z,84.51
2023-04-06T07:01:35.656Z,84.54
2023-04-06T07:03:37.593Z,84.64
2023-04-06T07:05:41.430Z,85.02
2023-04-06T07:07:43.568Z,85.21
2023-04-06T07:09:45.567Z,84.84
2023-04-06T07:11:47.658Z,84.58
2023-04-06T07:13:49.557Z,84.87
2023-04-06T07:15:51.813Z,84.70
2023-04-06T07:17:55.944Z,84.85
2023-04-06T07:19:57.878Z,84.38
2023-04-06T07:22:00.420Z,84.59
2023-04-06T07:24:02.988Z,84.11
2023-04-06T07:26:04.941Z,83.44
2023-04-06T07:28:06.839Z,83.72
2023-04-06T07:30:09.405Z,84.22
2023-04-06T07:32:11.653Z,83.48
2023-04-06T07:34:13.542Z,83.15
2023-04-06T07:36:15.756Z,83.36
2023-04-06T07:38:17.711Z,83.01
2023-04-06T07:40:20.742Z,82.74
2023-04-06T07:42:22.573Z,82.68
2023-04-06T07:44:24.634Z,82.46
2023-04-06T07:46:26.614Z,81.89
2023-04-06T07:48:28.549Z,81.85
2023-04-06T07:50:30.711Z,82.14
2023-04-06T07:52:34.173Z,82.11
2023-04-06T07:54:37.098Z,82.16
2023-04-06T07:56:38.948Z,81.23
2023-04-06T07:58:40.874Z,80.27
2023-04-06T08:00:42.774Z,79.11
2023-04-06T08:02:44.784Z,79.06
2023-04-06T08:04:49.212Z,79.15
2023-04-06T08:06:51.315Z,78.28
2023-04-06T08:08:53.150Z,78.26
2023-04-06T08:10:55.004Z,78.29
2023-04-06T08:12:58.054Z,78.16
2023-04-06T08:15:00.873Z,77.65
2023-04-06T08:17:04.618Z,78.13
2023-04-06T08:19:10.632Z,78.13
2023-04-06T08:21:15.973Z,77.37
2023-04-06T08:23:17.935Z,76.60
2023-04-06T08:25:19.830Z,76.05
2023-04-06T08:27:21.818Z,75.95
2023-04-06T08:29:23.630Z,75.85
2023-04-06T08:31:26.140Z,75.67
2023-04-06T08:33:28.566Z,75.87
2023-04-06T08:35:30.787Z,74.87
2023-04-06T08:37:32.723Z,74.82
2023-04-06T08:39:35.004Z,74.97
2023-04-06T08:41:36.949Z,75.57
2023-04-06T08:43:49.767Z,75.93
2023-04-06T08:45:52.020Z,75.68
2023-04-06T08:47:57.978Z,76.11
2023-04-06T08:50:04.107Z,76.25
2023-04-06T08:52:10.458Z,75.26
2023-04-06T08:54:12.380Z,75.71
2023-04-06T08:56:15.604Z,75.43
2023-04-06T08:58:31.191Z,73.84
2023-04-06T09:00:40.929Z,74.14
2023-04-06T09:02:46.720Z,73.51
2023-04-06T09:04:51.109Z,73.34
2023-04-06T09:06:53.630Z,73.53
2023-04-06T09:08:56.282Z,72.98
2023-04-06T09:11:02.333Z,73.03
2023-04-06T09:13:06.587Z,73.78
2023-04-06T09:15:23.607Z,73.14
2023-04-06T09:17:28.914Z,73.14
2023-04-06T09:19:31.534Z,73.82
2023-04-06T09:21:34.416Z,74.00
2023-04-06T09:23:36.454Z,73.29
2023-04-06T09:25:38.670Z,73.27
2023-04-06T09:27:41.064Z,73.13
2023-04-06T09:29:44.871Z,73.27
2023-04-06T09:31:47.026Z,73.59
2023-04-06T09:33:49.627Z,72.57
2023-04-06T09:35:54.959Z,72.65
2023-04-06T09:38:12.672Z,73.47
2023-04-06T09:40:20.357Z,72.78
2023-04-06T09:42:27.426Z,72.50
2023-04-06T09:44:29.333Z,72.84
2023-04-06T09:46:46.367Z,73.48
2023-04-06T09:48:54.086Z,72.25
2023-04-06T09:51:06.632Z,72.50
2023-04-06T09:53:09.220Z,71.81
2023-04-06T09:55:11.567Z,71.57
2023-04-06T09:57:19.707Z,71.75
2023-04-06T09:59:31.902Z,72.30
2023-04-06T10:01:35.208Z,71.69
2023-04-06T10:03:51.109Z,71.58
2023-04-06T10:05:59.789Z,71.51
2023-04-06T10:08:10.257Z,70.59
2023-04-06T10:10:14.400Z,70.97
2023-04-06T10:12:17.077Z,71.06
2023-04-06T10:14:19.567Z,71.45
2023-04-06T10:16:22.619Z,71.02
2023-04-06T10:18:24.856Z,71.25
2023-04-06T10:20:48.864Z,71.12
2023-04-06T10:23:06.893Z,70.48
2023-04-06T10:25:10.562Z,69.84
2023-04-06T10:27:12.485Z,68.11
2023-04-06T10:29:14.387Z,68.71
2023-04-06T10:31:17.321Z,68.22
2023-04-06T10:33:21.730Z,67.52
2023-04-06T10:35:25.163Z,66.27
2023-04-06T10:37:27.310Z,66.01
2023-04-06T10:39:29.351Z,64.90
2023-04-06T10:41:39.656Z,66.02
2023-04-06T10:43:42.930Z,66.62
2023-04-06T10:45:45.526Z,67.21
2023-04-06T10:47:47.852Z,67.20
2023-04-06T10:49:50.041Z,66.55
2023-04-06T10:51:56.089Z,66.60
2023-04-06T10:53:59.384Z,66.57
2023-04-06T10:56:02.132Z,66.00
2023-04-06T10:58:11.154Z,66.46
2023-04-06T11:00:13.959Z,65.93
2023-04-06T11:02:23.826Z,67.14
2023-04-06T11:04:26.680Z,66.98
2023-04-06T11:06:31.773Z,66.57
2023-04-06T11:08:34.624Z,66.54
2023-04-06T11:10:37.482Z,66.98
2023-04-06T11:12:39.549Z,67.65
2023-04-06T11:14:43.430Z,67.20
2023-04-06T11:16:51.169Z,66.40
2023-04-06T11:19:03.434Z,64.67
2023-04-06T11:21:06.752Z,64.19
2023-04-06T11:23:09.474Z,63.82
2023-04-06T11:25:11.811Z,63.62
2023-04-06T11:27:16.166Z,64.48
2023-04-06T11:29:21.321Z,64.12
2023-04-06T11:31:29.780Z,63.13
2023-04-06T11:33:37.632Z,61.31
2023-04-06T11:35:39.780Z,62.30
2023-04-06T11:37:47.301Z,62.64
2023-04-06T11:39:52.547Z,60.79
2023-04-06T11:42:05.568Z,60.23
2023-04-06T11:44:09.151Z,61.11
2023-04-06T11:46:12.028Z,60.84
2023-04-06T11:48:26.445Z,60.97
2023-04-06T11:50:36.233Z,60.76
2023-04-06T11:52:40.004Z,61.08
2023-04-06T11:54:42.504Z,59.85
2023-04-06T11:56:48.038Z,59.72
2023-04-06T11:58:50.257Z,59.93
2023-04-06T12:00:52.333Z,60.82
2023-04-06T12:02:54.261Z,60.81
2023-04-06T12:04:56.405Z,60.86
2023-04-06T12:07:02.989Z,60.92
2023-04-06T12:09:06.167Z,59.90
2023-04-06T12:11:09.450Z,57.35
2023-04-06T12:13:11.452Z,54.01
2023-04-06T12:15:13.335Z,55.28
2023-04-06T12:17:15.802Z,54.17
2023-04-06T12:19:18.212Z,54.62
2023-04-06T12:21:20.129Z,53.95
2023-04-06T12:23:22.094Z,53.61
2023-04-06T12:25:24.069Z,52.62
2023-04-06T12:27:26.173Z,51.98
2023-04-06T12:29:28.187Z,51.08
2023-04-06T12:31:31.034Z,51.24
2023-04-06T12:33:33.760Z,50.51
2023-04-06T12:35:36.334Z,50.39
2023-04-06T12:37:38.447Z,48.70
2023-04-06T12:39:40.735Z,48.05
2023-04-06T12:41:42.647Z,47.96
2023-04-06T12:43:46.234Z,46.53
2023-04-06T12:45:48.267Z,47.76
2023-04-06T12:47:50.583Z,47.29
2023-04-06T12:49:52.677Z,47.59
2023-04-06T12:51:54.736Z,47.45
2023-04-06T12:53:56.802Z,46.64
2023-04-06T12:56:00.195Z,46.24
2023-04-06T12:58:21.166Z,46.31
2023-04-06T13:00:23.761Z,45.89
2023-04-06T13:02:33.059Z,45.92
2023-04-06T13:04:34.934Z,44.34
2023-04-06T13:06:37.029Z,43.78
2023-04-06T13:08:40.374Z,44.11
2023-04-06T13:10:50.598Z,43.46
2023-04-06T13:12:55.619Z,43.60
2023-04-06T13:14:58.288Z,42.39
2023-04-06T13:17:00.906Z,42.39
2023-04-06T13:19:03.799Z,42.77
2023-04-06T13:21:07.403Z,42.64
2023-04-06T13:23:09.688Z,42.23
2023-04-06T13:25:11.784Z,42.63
2023-04-06T13:27:13.938Z,42.67
2023-04-06T13:29:16.171Z,41.42
2023-04-06T13:31:20.529Z,41.17
2023-04-06T13:33:23.946Z,40.93
2023-04-06T13:35:26.199Z,39.95
2023-04-06T13:37:28.214Z,39.97
2023-04-06T13:39:31.023Z,40.05
2023-04-06T13:41:32.965Z,40.22
2023-04-06T13:43:34.941Z,39.58
2023-04-06T13:45:38.894Z,39.44
2023-04-06T13:47:41.055Z,38.09
2023-04-06T13:49:43.215Z,38.95
2023-04-06T13:51:45.295Z,39.12
2023-04-06T13:53:47.479Z,39.87
2023-04-06T13:56:00.238Z,40.00
2023-04-06T13:58:04.794Z,39.88
2023-04-06T14:00:08.356Z,39.91
2023-04-06T14:02:12.326Z,40.39
2023-04-06T14:04:24.222Z,41.01
2023-04-06T14:06:31.742Z,40.09
2023-04-06T14:08:44.673Z,40.74
2023-04-06T14:10:57.555Z,40.37
2023-04-06T14:12:59.528Z,40.88
2023-04-06T14:15:04.395Z,41.89
2023-04-06T14:17:16.112Z,41.59
2023-04-06T14:19:20.869Z,42.02
2023-04-06T14:21:22.836Z,42.32
2023-04-06T14:23:29.005Z,42.15
2023-04-06T14:25:35.064Z,41.82
2023-04-06T14:27:37.028Z,42.05
2023-04-06T14:29:39.247Z,42.90
2023-04-06T14:31:42.555Z,42.65
2023-04-06T14:33:44.889Z,43.51
2023-04-06T14:35:51.524Z,44.13
2023-04-06T14:37:54.329Z,43.88
2023-04-06T14:39:56.516Z,43.74
2023-04-06T14:41:59.198Z,44.34
2023-04-06T14:44:02.093Z,45.25
2023-04-06T14:46:09.919Z,45.31
2023-04-06T14:48:19.404Z,46.42
2023-04-06T14:50:21.582Z,48.65
2023-04-06T14:52:23.726Z,51.63
2023-04-06T14:54:26.121Z,53.12
2023-04-06T14:56:34.517Z,54.32
2023-04-06T14:58:36.662Z,54.99
2023-04-06T15:00:40.209Z,56.83
2023-04-06T15:02:44.601Z,56.79
2023-04-06T15:04:47.134Z,58.87
2023-04-06T15:06:49.068Z,59.70
2023-04-06T15:08:58.145Z,60.44
2023-04-06T15:11:02.269Z,59.50
2023-04-06T15:13:10.582Z,58.58
2023-04-06T15:15:12.449Z,59.14
2023-04-06T15:17:17.249Z,59.58
2023-04-06T15:19:24.452Z,58.67
2023-04-06T15:21:36.467Z,58.72
2023-04-06T15:23:38.739Z,58.28
2023-04-06T15:25:42.567Z,57.77
2023-04-06T15:27:44.732Z,58.38
2023-04-06T15:29:47.110Z,58.15
2023-04-06T15:31:49.210Z,57.36
2023-04-06T15:34:07.010Z,58.28
2023-04-06T15:36:29.757Z,55.24
2023-04-06T15:38:32.104Z,54.75
2023-04-06T15:40:39.394Z,51.92
2023-04-06T15:42:43.420Z,50.95
2023-04-06T15:44:48.527Z,49.15
2023-04-06T15:46:53.423Z,48.17
2023-04-06T15:49:28.177Z,46.39
2023-04-06T15:51:35.292Z,45.10
2023-04-06T15:53:55.157Z,43.71
2023-04-06T15:56:04.448Z,44.87
2023-04-06T15:58:09.374Z,45.26
2023-04-06T16:00:12.194Z,45.33
2023-04-06T16:02:14.307Z,45.40
2023-04-06T16:04:17.936Z,45.55
2023-04-06T16:06:20.233Z,46.30
2023-04-06T16:08:27.067Z,46.77
2023-04-06T16:10:29.216Z,47.03
2023-04-06T16:12:34.576Z,47.06
2023-04-06T16:14:39.792Z,47.67
2023-04-06T16:16:45.481Z,47.71
2023-04-06T16:18:47.809Z,48.43
2023-04-06T16:20:50.184Z,48.64
2023-04-06T16:22:52.281Z,49.25
2023-04-06T16:24:55.167Z,48.36
2023-04-06T16:27:01.179Z,48.12
2023-04-06T16:29:03.566Z,48.97
2023-04-06T16:31:06.833Z,49.34
2023-04-06T16:33:09.619Z,49.84
2023-04-06T16:35:12.272Z,50.56
2023-04-06T16:37:14.341Z,51.54
2023-04-06T16:39:17.450Z,55.25
2023-04-06T16:41:19.715Z,55.84
2023-04-06T16:43:21.987Z,57.00
2023-04-06T16:45:27.114Z,57.68
2023-04-06T16:47:31.811Z,57.68
2023-04-06T16:49:36.373Z,57.34
2023-04-06T16:51:41.429Z,56.79
2023-04-06T16:53:50.388Z,58.30
2023-04-06T16:56:01.294Z,60.00
2023-04-06T16:58:12.453Z,59.45
2023-04-06T17:00:26.563Z,60.26
2023-04-06T17:02:30.217Z,59.25
2023-04-06T17:04:34.097Z,60.36
2023-04-06T17:06:36.495Z,60.87
2023-04-06T17:08:38.573Z,61.13
2023-04-06T17:10:41.902Z,61.25
2023-04-06T17:12:50.103Z,62.06
2023-04-06T17:14:52.427Z,61.98
2023-04-06T17:16:57.047Z,62.50
2023-04-06T17:19:01.675Z,62.44
2023-04-06T17:21:08.229Z,62.23
2023-04-06T17:23:10.524Z,62.85
2023-04-06T17:25:13.019Z,62.65
2023-04-06T17:27:15.697Z,62.12
2023-04-06T17:29:18.791Z,61.80
2023-04-06T17:31:21.746Z,61.76
2023-04-06T17:33:26.377Z,61.69
2023-04-06T17:35:35.489Z,61.27
2023-04-06T17:37:58.667Z,61.05
2023-04-06T17:40:00.935Z,60.61
2023-04-06T17:42:06.182Z,59.78
2023-04-06T17:44:08.226Z,58.85
2023-04-06T17:46:10.462Z,58.03
2023-04-06T17:48:21.155Z,58.00
2023-04-06T17:50:23.823Z,57.59
2023-04-06T17:52:27.602Z,58.38
2023-04-06T17:54:29.612Z,58.55
2023-04-06T17:56:31.684Z,58.54
2023-04-06T17:58:36.750Z,58.64
2023-04-06T18:00:39.000Z,58.29
2023-04-06T18:02:44.199Z,56.92
2023-04-06T18:04:46.747Z,56.38
2023-04-06T18:06:48.947Z,56.23
2023-04-06T18:08:51.558Z,55.93
2023-04-06T18:10:53.624Z,55.92
2023-04-06T18:12:56.027Z,56.70
2023-04-06T18:14:58.056Z,55.99
2023-04-06T18:17:00.821Z,56.16
2023-04-06T18:19:04.630Z,55.97
2023-04-06T18:21:07.209Z,56.13
2023-04-06T18:23:15.315Z,56.35
2023-04-06T18:25:17.467Z,56.77
2023-04-06T18:27:29.929Z,56.82
2023-04-06T18:29:31.960Z,57.40
2023-04-06T18:33:41.873Z,57.54
2023-04-06T18:35:43.838Z,57.05
2023-04-06T18:37:45.751Z,57.20
2023-04-06T18:39:47.967Z,57.37
2023-04-06T18:41:49.933Z,57.19
2023-04-06T18:43:51.827Z,57.45
2023-04-06T18:45:53.815Z,57.34
2023-04-06T18:48:00.535Z,57.60
2023-04-06T18:50:02.696Z,56.90
2023-04-06T18:52:06.874Z,56.86
2023-04-06T18:54:09.276Z,57.14
2023-04-06T18:56:20.544Z,57.08
2023-04-06T18:58:26.210Z,57.26
2023-04-06T19:00:28.053Z,57.16
2023-04-06T19:02:30.314Z,57.20
2023-04-06T19:04:32.451Z,57.57
2023-04-06T19:06:34.390Z,57.77
2023-04-06T19:08:36.344Z,58.15
2023-04-06T19:10:38.782Z,57.70
2023-04-06T19:12:40.591Z,57.48
2023-04-06T19:14:43.369Z,57.92
2023-04-06T19:16:52.359Z,57.67
2023-04-06T19:18:54.594Z,57.12
2023-04-06T19:20:56.341Z,57.56
2023-04-06T19:22:58.148Z,57.54
2023-04-06T19:25:00.035Z,57.50
2023-04-06T19:27:02.742Z,57.57
2023-04-06T19:29:04.789Z,56.96
2023-04-06T19:31:08.694Z,57.28
2023-04-06T19:33:10.611Z,56.87
2023-04-06T19:35:12.519Z,56.94
2023-04-06T19:37:14.319Z,56.50
2023-04-06T19:39:18.170Z,56.68
2023-04-06T19:41:20.142Z,56.26
2023-04-06T19:43:22.040Z,56.78
2023-04-06T19:45:26.321Z,56.51
2023-04-06T19:47:28.412Z,56.22
2023-04-06T19:49:30.452Z,56.84
2023-04-06T19:51:33.715Z,56.64
2023-04-06T19:53:36.093Z,56.65
2023-04-06T19:55:38.180Z,57.08
2023-04-06T19:57:39.938Z,56.93
2023-04-06T19:59:42.311Z,57.10
2023-04-06T20:01:45.559Z,56.95
2023-04-06T20:03:50.025Z,56.87
2023-04-06T20:05:51.987Z,56.67
2023-04-06T20:07:58.703Z,57.82
2023-04-06T20:10:02.295Z,57.96
2023-04-06T20:12:04.355Z,57.61
2023-04-06T20:14:06.143Z,57.36
2023-04-06T20:16:07.998Z,57.80
2023-04-06T20:18:09.900Z,57.93
2023-04-06T20:20:12.074Z,57.93
2023-04-06T20:22:14.190Z,57.49
2023-04-06T20:24:16.206Z,57.83
2023-04-06T20:26:18.163Z,57.08
2023-04-06T20:28:20.460Z,57.57
2023-04-06T20:30:22.887Z,57.49
2023-04-06T20:32:25.092Z,57.51
2023-04-06T20:34:29.006Z,57.35
2023-04-06T20:36:32.692Z,57.62
2023-04-06T20:38:34.883Z,58.06
2023-04-06T20:40:37.165Z,57.77
2023-04-06T20:42:39.366Z,57.82
2023-04-06T20:44:41.431Z,57.96
2023-04-06T20:46:43.478Z,58.33
2023-04-06T20:48:45.511Z,58.18
2023-04-06T20:50:47.318Z,58.24
2023-04-06T20:52:49.757Z,58.00
2023-04-06T20:54:52.258Z,58.08
2023-04-06T20:56:54.117Z,58.20
2023-04-06T20:58:58.549Z,58.08
2023-04-06T21:01:00.599Z,58.26
2023-04-06T21:03:02.747Z,58.68
2023-04-06T21:05:05.114Z,58.43
2023-04-06T21:07:07.420Z,58.41
2023-04-06T21:09:09.183Z,58.42
2023-04-06T21:11:11.153Z,58.26
2023-04-06T21:13:12.888Z,58.33
2023-04-06T21:15:14.706Z,58.22
2023-04-06T21:17:16.525Z,58.19
2023-04-06T21:19:18.394Z,58.33
2023-04-06T21:21:20.280Z,58.30
2023-04-06T21:23:23.135Z,58.19
2023-04-06T21:25:25.057Z,58.60
2023-04-06T21:27:26.872Z,57.87
2023-04-06T21:29:28.774Z,58.00
2023-04-06T21:31:30.961Z,57.21
2023-04-06T21:33:32.803Z,57.55
2023-04-06T21:35:38.647Z,57.33
2023-04-06T21:37:40.502Z,57.14
2023-04-06T21:39:42.212Z,57.10
2023-04-06T21:41:44.061Z,56.76
2023-04-06T21:43:45.905Z,56.54
2023-04-06T21:45:51.448Z,56.04
2023-04-06T21:47:53.416Z,55.83
2023-04-06T21:49:55.272Z,55.69
2023-04-06T21:51:59.580Z,54.35
2023-04-06T21:54:02.054Z,54.00
2023-04-06T21:56:04.089Z,54.43
2023-04-06T21:58:07.636Z,54.53
2023-04-06T22:00:10.298Z,54.09
2023-04-06T22:02:12.152Z,53.73
2023-04-06T22:04:14.341Z,53.93
2023-04-06T22:06:16.590Z,53.60
2023-04-06T22:08:32.715Z,53.28
2023-04-06T22:10:35.804Z,54.14
2023-04-06T22:12:37.863Z,53.21
2023-04-06T22:14:39.617Z,53.45
2023-04-06T22:16:41.557Z,52.88
2023-04-06T22:18:43.424Z,52.89
2023-04-06T22:20:45.913Z,53.28
2023-04-06T22:22:47.786Z,53.23
2023-04-06T22:24:49.592Z,52.92
2023-04-06T22:26:51.586Z,52.91
2023-04-06T22:28:53.511Z,52.63
2023-04-06T22:30:55.344Z,52.75
2023-04-06T22:32:57.304Z,53.34
2023-04-06T22:34:59.056Z,53.33
2023-04-06T22:37:01.149Z,52.62
2023-04-06T22:39:02.971Z,52.66
2023-04-06T22:41:06.589Z,52.72
2023-04-06T22:43:09.094Z,53.16
2023-04-06T22:45:11.516Z,52.62
2023-04-06T22:47:13.403Z,52.81
2023-04-06T22:49:15.659Z,52.54
2023-04-06T22:51:17.412Z,53.53
2023-04-06T22:53:19.316Z,52.87
2023-04-06T22:55:21.384Z,53.26
2023-04-06T22:57:23.129Z,52.85
2023-04-06T22:59:25.021Z,53.58
2023-04-06T23:01:27.114Z,53.09
2023-04-06T23:03:28.970Z,53.15
2023-04-06T23:05:30.903Z,53.53
2023-04-06T23:07:32.933Z,53.32
2023-04-06T23:09:34.712Z,53.55
2023-04-06T23:11:36.429Z,52.77
2023-04-06T23:13:38.334Z,53.21
2023-04-06T23:15:40.083Z,53.01
2023-04-06T23:17:41.959Z,53.59
2023-04-06T23:19:43.720Z,53.61
2023-04-06T23:21:45.504Z,53.31
2023-04-06T23:23:47.295Z,53.27
2023-04-06T23:25:49.099Z,53.44
2023-04-06T23:27:52.407Z,53.78
2023-04-06T23:29:54.385Z,53.64
2023-04-06T23:31:56.183Z,53.41
2023-04-06T23:33:58.071Z,53.58
2023-04-06T23:35:59.769Z,53.78
2023-04-06T23:38:01.527Z,53.54
2023-04-06T23:40:04.589Z,54.18
2023-04-06T23:42:06.479Z,53.64
2023-04-06T23:44:08.228Z,53.95
2023-04-06T23:46:10.177Z,54.47
2023-04-06T23:48:11.994Z,54.06
2023-04-06T23:50:13.918Z,54.12
2023-04-06T23:52:15.642Z,54.15
2023-04-06T23:54:17.443Z,54.24
2023-04-06T23:56:19.175Z,54.67
2023-04-06T23:58:21.301Z,54.41
